sensor_id;sensor_type;location;lat;lon;timestamp;pressure;altitude;pressure_sealevel;temperature;humidity
57232;BME280;43488;46.934;8.276;2023-05-03T00:00:20;97078.69;;;9.55;100.00
57232;BME280;43488;46.934;8.276;2023-05-03T00:02:55;97075.63;;;9.51;100.00
57232;BME280;43488;46.934;8.276;2023-05-03T00:05:25;97081.06;;;9.50;100.00
57232;BME280;43488;46.934;8.276;2023-05-03T00:07:52;97072.34;;;9.49;100.00
57232;BME280;43488;46.934;8.276;2023-05-03T00:10:20;97079.44;;;9.49;100.00
57232;BME280;43488;46.934;8.276;2023-05-03T00:12:50;97077.63;;;9.49;100.00
57232;BME280;43488;46.934;8.276;2023-05-03T00:15:17;97074.75;;;9.44;100.00
57232;BME280;43488;46.934;8.276;2023-05-03T00:17:44;97072.75;;;9.46;100.00
57232;BME280;43488;46.934;8.276;2023-05-03T00:20:12;97072.94;;;9.45;100.00
57232;BME280;43488;46.934;8.276;2023-05-03T00:22:41;97070.50;;;9.43;100.00
57232;BME280;43488;46.934;8.276;2023-05-03T00:25:08;97076.28;;;9.38;100.00
57232;BME280;43488;46.934;8.276;2023-05-03T00:27:36;97070.22;;;9.38;100.00
57232;BME280;43488;46.934;8.276;2023-05-03T00:30:05;97075.28;;;9.39;100.00
57232;BME280;43488;46.934;8.276;2023-05-03T00:32:33;97073.47;;;9.40;100.00
57232;BME280;43488;46.934;8.276;2023-05-03T00:35:01;97073.84;;;9.37;100.00
57232;BME280;43488;46.934;8.276;2023-05-03T00:37:33;97068.88;;;9.42;100.00
57232;BME280;43488;46.934;8.276;2023-05-03T00:40:00;97081.34;;;9.40;100.00
57232;BME280;43488;46.934;8.276;2023-05-03T00:42:28;97073.72;;;9.24;100.00
57232;BME280;43488;46.934;8.276;2023-05-03T00:44:55;97074.78;;;9.29;100.00
57232;BME280;43488;46.934;8.276;2023-05-03T00:47:22;97061.00;;;9.27;100.00
57232;BME280;43488;46.934;8.276;2023-05-03T00:49:50;97064.25;;;9.29;100.00
57232;BME280;43488;46.934;8.276;2023-05-03T00:52:19;97068.72;;;9.29;100.00
57232;BME280;43488;46.934;8.276;2023-05-03T00:54:47;97076.41;;;9.30;100.00
57232;BME280;43488;46.934;8.276;2023-05-03T00:57:14;97065.69;;;9.32;100.00
57232;BME280;43488;46.934;8.276;2023-05-03T00:59:43;97066.81;;;9.23;100.00
57232;BME280;43488;46.934;8.276;2023-05-03T01:02:10;97066.81;;;9.23;100.00
57232;BME280;43488;46.934;8.276;2023-05-03T01:04:37;97065.75;;;9.17;100.00
57232;BME280;43488;46.934;8.276;2023-05-03T01:10:25;97047.09;;;9.12;100.00
57232;BME280;43488;46.934;8.276;2023-05-03T01:13:48;97051.91;;;9.08;100.00
57232;BME280;43488;46.934;8.276;2023-05-03T01:16:34;97050.09;;;9.09;100.00
57232;BME280;43488;46.934;8.276;2023-05-03T01:19:33;97045.47;;;9.11;100.00
57232;BME280;43488;46.934;8.276;2023-05-03T01:25:11;97040.78;;;9.06;100.00
57232;BME280;43488;46.934;8.276;2023-05-03T01:27:40;97056.16;;;9.09;100.00
57232;BME280;43488;46.934;8.276;2023-05-03T01:30:10;97040.59;;;9.08;100.00
57232;BME280;43488;46.934;8.276;2023-05-03T01:33:17;97039.69;;;9.01;100.00
57232;BME280;43488;46.934;8.276;2023-05-03T01:35:53;97038.16;;;9.06;100.00
57232;BME280;43488;46.934;8.276;2023-05-03T01:38:23;97033.34;;;9.10;100.00
57232;BME280;43488;46.934;8.276;2023-05-03T01:40:54;97035.78;;;9.11;100.00
57232;BME280;43488;46.934;8.276;2023-05-03T01:43:25;97039.41;;;9.10;100.00
57232;BME280;43488;46.934;8.276;2023-05-03T01:45:53;97042.75;;;9.04;100.00
57232;BME280;43488;46.934;8.276;2023-05-03T01:48:21;97052.28;;;9.05;100.00
57232;BME280;43488;46.934;8.276;2023-05-03T01:50:48;97057.34;;;9.07;100.00
57232;BME280;43488;46.934;8.276;2023-05-03T01:53:18;97056.97;;;9.10;100.00
57232;BME280;43488;46.934;8.276;2023-05-03T01:55:46;97049.91;;;9.10;100.00
57232;BME280;43488;46.934;8.276;2023-05-03T01:58:18;97049.00;;;9.03;100.00
57232;BME280;43488;46.934;8.276;2023-05-03T02:00:51;97042.59;;;9.06;100.00
57232;BME280;43488;46.934;8.276;2023-05-03T02:03:19;97043.41;;;9.06;100.00
57232;BME280;43488;46.934;8.276;2023-05-03T02:05:47;97046.38;;;9.03;100.00
57232;BME280;43488;46.934;8.276;2023-05-03T02:08:14;97050.91;;;9.09;100.00
57232;BME280;43488;46.934;8.276;2023-05-03T02:10:45;97049.00;;;9.03;100.00
57232;BME280;43488;46.934;8.276;2023-05-03T02:13:12;97048.38;;;9.01;100.00
57232;BME280;43488;46.934;8.276;2023-05-03T02:15:40;97047.84;;;9.06;100.00
57232;BME280;43488;46.934;8.276;2023-05-03T02:18:11;97049.19;;;9.17;100.00
57232;BME280;43488;46.934;8.276;2023-05-03T02:20:38;97051.84;;;9.23;100.00
57232;BME280;43488;46.934;8.276;2023-05-03T02:23:05;97054.56;;;9.30;100.00
57232;BME280;43488;46.934;8.276;2023-05-03T02:25:33;97056.13;;;9.24;100.00
57232;BME280;43488;46.934;8.276;2023-05-03T02:28:00;97050.59;;;9.34;100.00
57232;BME280;43488;46.934;8.276;2023-05-03T02:30:28;97054.03;;;9.34;100.00
57232;BME280;43488;46.934;8.276;2023-05-03T02:32:55;97043.16;;;9.23;100.00
57232;BME280;43488;46.934;8.276;2023-05-03T02:35:23;97048.31;;;9.31;100.00
57232;BME280;43488;46.934;8.276;2023-05-03T02:37:50;97041.50;;;9.36;100.00
57232;BME280;43488;46.934;8.276;2023-05-03T02:40:18;97045.75;;;9.37;100.00
57232;BME280;43488;46.934;8.276;2023-05-03T02:42:45;97033.34;;;9.31;100.00
57232;BME280;43488;46.934;8.276;2023-05-03T02:45:12;97037.91;;;9.23;100.00
57232;BME280;43488;46.934;8.276;2023-05-03T02:47:39;97035.16;;;9.31;100.00
57232;BME280;43488;46.934;8.276;2023-05-03T02:50:07;97041.31;;;9.38;100.00
57232;BME280;43488;46.934;8.276;2023-05-03T02:52:34;97036.78;;;9.32;100.00
57232;BME280;43488;46.934;8.276;2023-05-03T02:55:01;97032.00;;;9.35;100.00
57232;BME280;43488;46.934;8.276;2023-05-03T02:57:29;97031.81;;;9.37;100.00
57232;BME280;43488;46.934;8.276;2023-05-03T02:59:57;97035.53;;;9.43;100.00
57232;BME280;43488;46.934;8.276;2023-05-03T03:02:25;97027.06;;;9.47;100.00
57232;BME280;43488;46.934;8.276;2023-05-03T03:04:52;97025.06;;;9.49;100.00
57232;BME280;43488;46.934;8.276;2023-05-03T03:07:19;97021.25;;;9.52;100.00
57232;BME280;43488;46.934;8.276;2023-05-03T03:09:47;97018.84;;;9.57;100.00
57232;BME280;43488;46.934;8.276;2023-05-03T03:12:14;97021.94;;;9.60;100.00
57232;BME280;43488;46.934;8.276;2023-05-03T03:14:41;97023.31;;;9.56;100.00
57232;BME280;43488;46.934;8.276;2023-05-03T03:17:11;97009.78;;;9.59;100.00
57232;BME280;43488;46.934;8.276;2023-05-03T03:19:39;97010.41;;;9.61;100.00
57232;BME280;43488;46.934;8.276;2023-05-03T03:22:06;97021.56;;;9.63;100.00
57232;BME280;43488;46.934;8.276;2023-05-03T03:24:34;97015.91;;;9.66;100.00
57232;BME280;43488;46.934;8.276;2023-05-03T03:27:01;97009.63;;;9.61;100.00
57232;BME280;43488;46.934;8.276;2023-05-03T03:29:31;97013.28;;;9.66;100.00
57232;BME280;43488;46.934;8.276;2023-05-03T03:31:58;97002.28;;;9.56;100.00
57232;BME280;43488;46.934;8.276;2023-05-03T03:34:26;96997.22;;;9.55;100.00
57232;BME280;43488;46.934;8.276;2023-05-03T03:36:53;96996.63;;;9.59;100.00
57232;BME280;43488;46.934;8.276;2023-05-03T03:39:20;96988.72;;;9.53;100.00
57232;BME280;43488;46.934;8.276;2023-05-03T03:41:47;96989.06;;;9.50;100.00
57232;BME280;43488;46.934;8.276;2023-05-03T03:44:14;96984.47;;;9.52;100.00
57232;BME280;43488;46.934;8.276;2023-05-03T03:46:42;96991.34;;;9.53;100.00
57232;BME280;43488;46.934;8.276;2023-05-03T03:49:09;96992.97;;;9.54;100.00
57232;BME280;43488;46.934;8.276;2023-05-03T03:51:37;96985.00;;;9.47;100.00
57232;BME280;43488;46.934;8.276;2023-05-03T03:54:05;96992.34;;;9.52;100.00
57232;BME280;43488;46.934;8.276;2023-05-03T03:56:32;96990.06;;;9.49;100.00
57232;BME280;43488;46.934;8.276;2023-05-03T03:58:59;96990.66;;;9.44;100.00
57232;BME280;43488;46.934;8.276;2023-05-03T04:01:27;96990.84;;;9.43;100.00
57232;BME280;43488;46.934;8.276;2023-05-03T04:03:54;96992.69;;;9.49;100.00
57232;BME280;43488;46.934;8.276;2023-05-03T04:06:22;96985.63;;;9.49;100.00
57232;BME280;43488;46.934;8.276;2023-05-03T04:08:49;96995.31;;;9.49;100.00
57232;BME280;43488;46.934;8.276;2023-05-03T04:11:16;97000.91;;;9.39;100.00
57232;BME280;43488;46.934;8.276;2023-05-03T04:13:44;96995.72;;;9.46;100.00
57232;BME280;43488;46.934;8.276;2023-05-03T04:16:11;96996.59;;;9.53;100.00
57232;BME280;43488;46.934;8.276;2023-05-03T04:18:38;96994.16;;;9.51;100.00
57232;BME280;43488;46.934;8.276;2023-05-03T04:21:05;96996.13;;;9.49;100.00
57232;BME280;43488;46.934;8.276;2023-05-03T04:23:34;96988.50;;;9.54;100.00
57232;BME280;43488;46.934;8.276;2023-05-03T04:26:01;96994.59;;;9.55;100.00
57232;BME280;43488;46.934;8.276;2023-05-03T04:28:29;96996.63;;;9.59;100.00
57232;BME280;43488;46.934;8.276;2023-05-03T04:30:56;96994.25;;;9.64;100.00
57232;BME280;43488;46.934;8.276;2023-05-03T04:33:25;96991.63;;;9.64;100.00
57232;BME280;43488;46.934;8.276;2023-05-03T04:35:56;96998.63;;;9.57;100.00
57232;BME280;43488;46.934;8.276;2023-05-03T04:38:23;96989.56;;;9.60;100.00
57232;BME280;43488;46.934;8.276;2023-05-03T04:40:51;97001.75;;;9.67;100.00
57232;BME280;43488;46.934;8.276;2023-05-03T04:43:18;97004.19;;;9.69;100.00
57232;BME280;43488;46.934;8.276;2023-05-03T04:45:45;97003.53;;;9.60;100.00
57232;BME280;43488;46.934;8.276;2023-05-03T04:48:12;97009.84;;;9.66;100.00
57232;BME280;43488;46.934;8.276;2023-05-03T04:50:40;97018.22;;;9.76;100.00
57232;BME280;43488;46.934;8.276;2023-05-03T04:53:08;97022.94;;;9.81;100.00
57232;BME280;43488;46.934;8.276;2023-05-03T04:55:35;97017.47;;;9.82;100.00
57232;BME280;43488;46.934;8.276;2023-05-03T04:58:03;97033.66;;;9.86;100.00
57232;BME280;43488;46.934;8.276;2023-05-03T05:00:31;97035.16;;;9.95;100.00
57232;BME280;43488;46.934;8.276;2023-05-03T05:02:59;97039.06;;;9.99;100.00
57232;BME280;43488;46.934;8.276;2023-05-03T05:05:27;97031.78;;;10.01;100.00
57232;BME280;43488;46.934;8.276;2023-05-03T05:07:56;97042.31;;;10.01;100.00
57232;BME280;43488;46.934;8.276;2023-05-03T05:10:27;97040.91;;;10.05;100.00
57232;BME280;43488;46.934;8.276;2023-05-03T05:12:55;97043.19;;;10.08;100.00
57232;BME280;43488;46.934;8.276;2023-05-03T05:15:24;97054.06;;;10.05;100.00
57232;BME280;43488;46.934;8.276;2023-05-03T05:17:51;97052.28;;;10.12;100.00
57232;BME280;43488;46.934;8.276;2023-05-03T05:20:19;97055.78;;;10.19;100.00
57232;BME280;43488;46.934;8.276;2023-05-03T05:22:47;97056.25;;;10.23;100.00
57232;BME280;43488;46.934;8.276;2023-05-03T05:25:15;97065.63;;;10.32;100.00
57232;BME280;43488;46.934;8.276;2023-05-03T05:27:42;97072.16;;;10.36;100.00
57232;BME280;43488;46.934;8.276;2023-05-03T05:30:10;97068.31;;;10.39;100.00
57232;BME280;43488;46.934;8.276;2023-05-03T05:32:37;97068.31;;;10.39;100.00
57232;BME280;43488;46.934;8.276;2023-05-03T05:35:05;97080.84;;;10.37;100.00
57232;BME280;43488;46.934;8.276;2023-05-03T05:37:32;97072.81;;;10.45;100.00
57232;BME280;43488;46.934;8.276;2023-05-03T05:40:00;97083.41;;;10.51;100.00
57232;BME280;43488;46.934;8.276;2023-05-03T05:42:31;97073.91;;;10.57;100.00
57232;BME280;43488;46.934;8.276;2023-05-03T05:44:59;97069.88;;;10.61;100.00
57232;BME280;43488;46.934;8.276;2023-05-03T05:47:28;97079.06;;;10.72;100.00
57232;BME280;43488;46.934;8.276;2023-05-03T05:49:56;97086.63;;;10.81;100.00
57232;BME280;43488;46.934;8.276;2023-05-03T05:52:23;97089.47;;;10.87;100.00
57232;BME280;43488;46.934;8.276;2023-05-03T05:54:50;97090.31;;;10.94;100.00
57232;BME280;43488;46.934;8.276;2023-05-03T05:57:18;97089.91;;;10.97;100.00
57232;BME280;43488;46.934;8.276;2023-05-03T05:59:46;97094.81;;;11.00;100.00
57232;BME280;43488;46.934;8.276;2023-05-03T06:02:16;97084.31;;;11.06;100.00
57232;BME280;43488;46.934;8.276;2023-05-03T06:04:44;97096.47;;;11.07;100.00
57232;BME280;43488;46.934;8.276;2023-05-03T06:07:13;97098.31;;;11.14;100.00
57232;BME280;43488;46.934;8.276;2023-05-03T06:09:40;97084.72;;;11.10;100.00
57232;BME280;43488;46.934;8.276;2023-05-03T06:12:09;97087.97;;;11.12;100.00
57232;BME280;43488;46.934;8.276;2023-05-03T06:14:37;97089.41;;;11.21;100.00
57232;BME280;43488;46.934;8.276;2023-05-03T06:17:04;97084.59;;;11.25;100.00
57232;BME280;43488;46.934;8.276;2023-05-03T06:19:31;97086.59;;;11.23;100.00
57232;BME280;43488;46.934;8.276;2023-05-03T06:21:59;97079.91;;;11.20;100.00
57232;BME280;43488;46.934;8.276;2023-05-03T06:24:26;97083.75;;;11.18;100.00
57232;BME280;43488;46.934;8.276;2023-05-03T06:26:59;97086.00;;;11.27;100.00
57232;BME280;43488;46.934;8.276;2023-05-03T06:29:28;97085.19;;;11.33;100.00
57232;BME280;43488;46.934;8.276;2023-05-03T06:31:55;97077.31;;;11.40;100.00
57232;BME280;43488;46.934;8.276;2023-05-03T06:34:22;97082.81;;;11.45;100.00
57232;BME280;43488;46.934;8.276;2023-05-03T06:36:50;97078.19;;;11.54;100.00
57232;BME280;43488;46.934;8.276;2023-05-03T06:39:17;97084.47;;;11.59;100.00
57232;BME280;43488;46.934;8.276;2023-05-03T06:41:45;97078.00;;;11.62;100.00
57232;BME280;43488;46.934;8.276;2023-05-03T06:44:13;97074.56;;;11.68;100.00
57232;BME280;43488;46.934;8.276;2023-05-03T06:46:40;97075.78;;;11.79;100.00
57232;BME280;43488;46.934;8.276;2023-05-03T06:49:08;97072.78;;;11.95;99.60
57232;BME280;43488;46.934;8.276;2023-05-03T06:51:36;97066.31;;;12.17;98.47
57232;BME280;43488;46.934;8.276;2023-05-03T06:54:04;97074.81;;;12.33;94.86
57232;BME280;43488;46.934;8.276;2023-05-03T06:56:36;97062.25;;;12.35;95.55
57232;BME280;43488;46.934;8.276;2023-05-03T06:59:04;97063.47;;;12.12;96.42
57232;BME280;43488;46.934;8.276;2023-05-03T07:01:32;97064.28;;;12.13;96.79
57232;BME280;43488;46.934;8.276;2023-05-03T07:04:00;97057.56;;;12.30;96.13
57232;BME280;43488;46.934;8.276;2023-05-03T07:06:30;97051.06;;;12.33;97.27
57232;BME280;43488;46.934;8.276;2023-05-03T07:08:57;97051.91;;;12.27;96.64
57232;BME280;43488;46.934;8.276;2023-05-03T07:11:25;97043.94;;;12.33;96.22
57232;BME280;43488;46.934;8.276;2023-05-03T07:13:53;97041.31;;;12.40;95.15
57232;BME280;43488;46.934;8.276;2023-05-03T07:16:21;97036.03;;;12.33;92.78
57232;BME280;43488;46.934;8.276;2023-05-03T07:18:51;97025.25;;;12.41;93.54
57232;BME280;43488;46.934;8.276;2023-05-03T07:21:18;97026.28;;;12.40;95.57
57232;BME280;43488;46.934;8.276;2023-05-03T07:23:46;97025.47;;;12.53;96.32
57232;BME280;43488;46.934;8.276;2023-05-03T07:26:13;97021.00;;;12.47;95.30
57232;BME280;43488;46.934;8.276;2023-05-03T07:28:42;97019.97;;;12.55;95.47
57232;BME280;43488;46.934;8.276;2023-05-03T07:31:10;97012.44;;;12.51;95.12
57232;BME280;43488;46.934;8.276;2023-05-03T07:33:38;97008.56;;;12.61;96.19
57232;BME280;43488;46.934;8.276;2023-05-03T07:36:05;97014.41;;;12.69;95.00
57232;BME280;43488;46.934;8.276;2023-05-03T07:38:33;97001.44;;;12.68;94.18
57232;BME280;43488;46.934;8.276;2023-05-03T07:41:01;96999.44;;;12.57;94.64
57232;BME280;43488;46.934;8.276;2023-05-03T07:43:29;97002.25;;;12.62;97.32
57232;BME280;43488;46.934;8.276;2023-05-03T07:45:57;97000.19;;;12.77;94.62
57232;BME280;43488;46.934;8.276;2023-05-03T07:48:24;96993.06;;;12.71;94.35
57232;BME280;43488;46.934;8.276;2023-05-03T07:50:52;96994.47;;;12.80;97.20
57232;BME280;43488;46.934;8.276;2023-05-03T07:53:20;96997.72;;;12.82;96.31
57232;BME280;43488;46.934;8.276;2023-05-03T07:55:48;96992.81;;;12.92;96.19
57232;BME280;43488;46.934;8.276;2023-05-03T07:58:15;96990.41;;;12.84;95.63
57232;BME280;43488;46.934;8.276;2023-05-03T08:00:42;96995.03;;;12.95;96.51
57232;BME280;43488;46.934;8.276;2023-05-03T08:03:10;96989.06;;;13.06;98.61
57232;BME280;43488;46.934;8.276;2023-05-03T08:05:38;96991.00;;;13.31;93.88
57232;BME280;43488;46.934;8.276;2023-05-03T08:08:09;96981.44;;;13.36;90.37
57232;BME280;43488;46.934;8.276;2023-05-03T08:10:41;96982.72;;;13.14;89.33
57232;BME280;43488;46.934;8.276;2023-05-03T08:13:09;96981.44;;;13.36;89.27
57232;BME280;43488;46.934;8.276;2023-05-03T08:15:37;96977.09;;;13.42;91.04
57232;BME280;43488;46.934;8.276;2023-05-03T08:18:04;96984.16;;;13.17;89.45
57232;BME280;43488;46.934;8.276;2023-05-03T08:20:34;96971.88;;;13.35;87.44
57232;BME280;43488;46.934;8.276;2023-05-03T08:23:03;96968.00;;;13.38;85.97
57232;BME280;43488;46.934;8.276;2023-05-03T08:25:31;96961.09;;;13.37;85.31
57232;BME280;43488;46.934;8.276;2023-05-03T08:27:58;96959.88;;;13.33;83.58
57232;BME280;43488;46.934;8.276;2023-05-03T08:30:26;96948.97;;;13.23;85.15
57232;BME280;43488;46.934;8.276;2023-05-03T08:32:53;96957.84;;;13.35;87.26
57232;BME280;43488;46.934;8.276;2023-05-03T08:35:21;96951.06;;;13.07;86.01
57232;BME280;43488;46.934;8.276;2023-05-03T08:37:49;96946.66;;;12.95;85.64
57232;BME280;43488;46.934;8.276;2023-05-03T08:40:20;96945.72;;;13.14;85.50
57232;BME280;43488;46.934;8.276;2023-05-03T08:42:48;96955.63;;;13.32;84.85
57232;BME280;43488;46.934;8.276;2023-05-03T08:45:18;96952.81;;;13.27;83.94
57232;BME280;43488;46.934;8.276;2023-05-03T08:47:45;96951.72;;;13.34;84.93
57232;BME280;43488;46.934;8.276;2023-05-03T08:50:14;96943.41;;;13.62;85.04
57232;BME280;43488;46.934;8.276;2023-05-03T08:52:42;96939.75;;;13.63;85.21
57232;BME280;43488;46.934;8.276;2023-05-03T08:55:10;96935.00;;;13.72;86.32
57232;BME280;43488;46.934;8.276;2023-05-03T08:57:38;96937.50;;;13.60;83.89
57232;BME280;43488;46.934;8.276;2023-05-03T09:00:06;96925.31;;;13.59;85.73
57232;BME280;43488;46.934;8.276;2023-05-03T09:02:37;96935.19;;;13.71;86.70
57232;BME280;43488;46.934;8.276;2023-05-03T09:08:13;96929.94;;;13.89;85.16
57232;BME280;43488;46.934;8.276;2023-05-03T09:14:43;96940.78;;;14.06;85.50
57232;BME280;43488;46.934;8.276;2023-05-03T09:17:17;96931.66;;;14.02;83.50
57232;BME280;43488;46.934;8.276;2023-05-03T09:23:57;96928.28;;;14.13;86.69
57232;BME280;43488;46.934;8.276;2023-05-03T09:26:48;96931.41;;;14.28;83.48
57232;BME280;43488;46.934;8.276;2023-05-03T09:29:31;96938.97;;;14.43;82.75
57232;BME280;43488;46.934;8.276;2023-05-03T09:32:01;96940.94;;;14.54;82.14
57232;BME280;43488;46.934;8.276;2023-05-03T09:34:30;96941.59;;;14.98;84.21
57232;BME280;43488;46.934;8.276;2023-05-03T09:37:00;96942.34;;;14.87;79.43
57232;BME280;43488;46.934;8.276;2023-05-03T09:39:28;96946.34;;;14.59;78.96
57232;BME280;43488;46.934;8.276;2023-05-03T09:41:55;96939.44;;;14.58;77.07
57232;BME280;43488;46.934;8.276;2023-05-03T09:44:47;96943.25;;;14.62;76.67
57232;BME280;43488;46.934;8.276;2023-05-03T09:47:15;96936.28;;;14.68;76.81
57232;BME280;43488;46.934;8.276;2023-05-03T09:49:43;96941.91;;;14.71;78.42
57232;BME280;43488;46.934;8.276;2023-05-03T09:52:10;96938.16;;;14.79;79.62
57232;BME280;43488;46.934;8.276;2023-05-03T09:54:47;96947.22;;;14.53;76.76
57232;BME280;43488;46.934;8.276;2023-05-03T09:57:15;96940.59;;;14.80;78.87
57232;BME280;43488;46.934;8.276;2023-05-03T09:59:44;96937.19;;;14.92;81.83
57232;BME280;43488;46.934;8.276;2023-05-03T10:02:13;96952.84;;;14.82;79.75
57232;BME280;43488;46.934;8.276;2023-05-03T10:04:50;96954.31;;;15.07;82.49
57232;BME280;43488;46.934;8.276;2023-05-03T10:07:28;96960.91;;;14.87;82.17
57232;BME280;43488;46.934;8.276;2023-05-03T10:10:13;96960.81;;;14.63;81.67
57232;BME280;43488;46.934;8.276;2023-05-03T10:12:41;96965.19;;;14.69;80.70
57232;BME280;43488;46.934;8.276;2023-05-03T10:15:10;96963.84;;;14.97;83.07
57232;BME280;43488;46.934;8.276;2023-05-03T10:17:50;96970.44;;;15.06;82.75
57232;BME280;43488;46.934;8.276;2023-05-03T10:20:38;96967.56;;;15.07;79.97
57232;BME280;43488;46.934;8.276;2023-05-03T10:23:07;96958.09;;;15.30;81.11
57232;BME280;43488;46.934;8.276;2023-05-03T10:28:36;96973.09;;;15.06;76.27
57232;BME280;43488;46.934;8.276;2023-05-03T10:31:04;96973.78;;;15.01;77.27
57232;BME280;43488;46.934;8.276;2023-05-03T10:33:37;96963.91;;;15.39;79.37
57232;BME280;43488;46.934;8.276;2023-05-03T10:36:06;96971.59;;;15.70;81.43
57232;BME280;43488;46.934;8.276;2023-05-03T10:38:36;96959.84;;;15.78;79.83
57232;BME280;43488;46.934;8.276;2023-05-03T10:41:03;96960.31;;;15.86;78.76
57232;BME280;43488;46.934;8.276;2023-05-03T10:46:05;96951.69;;;15.91;75.29
57232;BME280;43488;46.934;8.276;2023-05-03T10:48:38;96950.28;;;15.88;77.02
57232;BME280;43488;46.934;8.276;2023-05-03T10:51:35;96944.72;;;15.67;75.56
57232;BME280;43488;46.934;8.276;2023-05-03T10:54:06;96956.38;;;15.66;75.54
57232;BME280;43488;46.934;8.276;2023-05-03T10:56:50;96952.44;;;15.68;76.39
57232;BME280;43488;46.934;8.276;2023-05-03T10:59:18;96943.16;;;15.59;76.25
57232;BME280;43488;46.934;8.276;2023-05-03T11:01:49;96949.38;;;15.95;78.17
57232;BME280;43488;46.934;8.276;2023-05-03T11:04:35;96946.34;;;16.14;75.79
57232;BME280;43488;46.934;8.276;2023-05-03T11:07:04;96938.97;;;16.28;75.70
57232;BME280;43488;46.934;8.276;2023-05-03T11:09:33;96945.91;;;16.29;74.44
57232;BME280;43488;46.934;8.276;2023-05-03T11:12:06;96941.03;;;16.14;73.71
57232;BME280;43488;46.934;8.276;2023-05-03T11:14:34;96938.84;;;16.23;73.92
57232;BME280;43488;46.934;8.276;2023-05-03T11:17:03;96936.47;;;16.62;72.24
57232;BME280;43488;46.934;8.276;2023-05-03T11:19:31;96939.03;;;16.57;72.23
57232;BME280;43488;46.934;8.276;2023-05-03T11:21:58;96940.16;;;16.84;72.22
57232;BME280;43488;46.934;8.276;2023-05-03T11:24:27;96939.91;;;16.86;71.08
57232;BME280;43488;46.934;8.276;2023-05-03T11:26:54;96936.44;;;16.85;70.97
57232;BME280;43488;46.934;8.276;2023-05-03T11:29:24;96939.69;;;16.87;70.12
57232;BME280;43488;46.934;8.276;2023-05-03T11:31:52;96937.56;;;17.01;70.84
57232;BME280;43488;46.934;8.276;2023-05-03T11:34:39;96933.66;;;17.37;70.58
57232;BME280;43488;46.934;8.276;2023-05-03T11:37:08;96944.50;;;17.47;71.37
57232;BME280;43488;46.934;8.276;2023-05-03T11:39:37;96934.59;;;17.59;67.79
57232;BME280;43488;46.934;8.276;2023-05-03T11:42:06;96941.13;;;17.69;70.57
57232;BME280;43488;46.934;8.276;2023-05-03T11:44:34;96945.53;;;17.75;66.98
57232;BME280;43488;46.934;8.276;2023-05-03T11:47:04;96941.41;;;17.84;69.25
57232;BME280;43488;46.934;8.276;2023-05-03T11:49:31;96937.69;;;17.85;69.48
57232;BME280;43488;46.934;8.276;2023-05-03T11:51:59;96939.78;;;17.83;65.23
57232;BME280;43488;46.934;8.276;2023-05-03T11:54:28;96932.59;;;18.00;66.98
57232;BME280;43488;46.934;8.276;2023-05-03T11:56:57;96931.47;;;18.35;71.16
57232;BME280;43488;46.934;8.276;2023-05-03T11:59:37;96935.16;;;18.51;67.44
57232;BME280;43488;46.934;8.276;2023-05-03T12:02:14;96936.25;;;18.33;68.23
57232;BME280;43488;46.934;8.276;2023-05-03T12:04:42;96934.00;;;18.25;65.69
57232;BME280;43488;46.934;8.276;2023-05-03T12:07:10;96931.09;;;18.26;64.93
57232;BME280;43488;46.934;8.276;2023-05-03T12:09:39;96926.81;;;18.25;67.30
57232;BME280;43488;46.934;8.276;2023-05-03T12:12:08;96925.72;;;18.43;65.20
57232;BME280;43488;46.934;8.276;2023-05-03T12:14:59;96921.53;;;18.47;65.84
57232;BME280;43488;46.934;8.276;2023-05-03T12:17:37;96919.53;;;18.59;64.44
57232;BME280;43488;46.934;8.276;2023-05-03T12:20:32;96908.56;;;18.56;64.43
57232;BME280;43488;46.934;8.276;2023-05-03T12:23:05;96897.38;;;18.75;64.93
57232;BME280;43488;46.934;8.276;2023-05-03T12:25:36;96902.88;;;18.91;61.67
57232;BME280;43488;46.934;8.276;2023-05-03T12:28:05;96895.19;;;18.94;64.24
57232;BME280;43488;46.934;8.276;2023-05-03T12:30:33;96888.97;;;18.89;65.27
57232;BME280;43488;46.934;8.276;2023-05-03T12:33:03;96881.78;;;18.89;63.83
57232;BME280;43488;46.934;8.276;2023-05-03T12:35:30;96881.44;;;19.08;61.42
57232;BME280;43488;46.934;8.276;2023-05-03T12:37:57;96886.38;;;19.21;62.76
57232;BME280;43488;46.934;8.276;2023-05-03T12:40:25;96877.59;;;19.25;59.62
57232;BME280;43488;46.934;8.276;2023-05-03T12:42:55;96869.19;;;19.39;62.36
57232;BME280;43488;46.934;8.276;2023-05-03T12:45:22;96882.47;;;19.33;63.19
57232;BME280;43488;46.934;8.276;2023-05-03T12:47:49;96867.78;;;19.31;61.52
57232;BME280;43488;46.934;8.276;2023-05-03T12:50:17;96882.53;;;19.39;61.50
57232;BME280;43488;46.934;8.276;2023-05-03T12:52:44;96873.41;;;19.62;60.98
57232;BME280;43488;46.934;8.276;2023-05-03T12:55:11;96867.53;;;19.65;61.84
57232;BME280;43488;46.934;8.276;2023-05-03T12:57:39;96862.03;;;19.76;59.38
57232;BME280;43488;46.934;8.276;2023-05-03T13:00:09;96863.22;;;20.01;58.11
57232;BME280;43488;46.934;8.276;2023-05-03T13:02:37;96861.09;;;19.98;58.28
57232;BME280;43488;46.934;8.276;2023-05-03T13:05:04;96856.16;;;20.27;60.97
57232;BME280;43488;46.934;8.276;2023-05-03T13:07:33;96853.81;;;20.40;57.54
57232;BME280;43488;46.934;8.276;2023-05-03T13:10:00;96854.22;;;20.12;55.47
57232;BME280;43488;46.934;8.276;2023-05-03T13:12:28;96851.03;;;20.15;57.15
57232;BME280;43488;46.934;8.276;2023-05-03T13:15:00;96847.59;;;20.25;60.03
57232;BME280;43488;46.934;8.276;2023-05-03T13:17:30;96845.25;;;20.38;57.38
57232;BME280;43488;46.934;8.276;2023-05-03T13:19:58;96843.13;;;20.40;54.37
57232;BME280;43488;46.934;8.276;2023-05-03T13:22:25;96834.81;;;20.37;55.08
57232;BME280;43488;46.934;8.276;2023-05-03T13:24:53;96842.13;;;20.52;55.95
57232;BME280;43488;46.934;8.276;2023-05-03T13:27:20;96838.28;;;20.32;55.56
57232;BME280;43488;46.934;8.276;2023-05-03T13:29:48;96841.81;;;20.43;58.03
57232;BME280;43488;46.934;8.276;2023-05-03T13:32:15;96829.84;;;20.66;56.61
57232;BME280;43488;46.934;8.276;2023-05-03T13:34:42;96831.72;;;20.65;55.35